createdAt,value
2023-04-07T00:00:56.073Z,99873.47
2023-04-07T00:03:23.830Z,99868.44
2023-04-07T00:05:51.183Z,99874.06
2023-04-07T00:08:18.552Z,99871.09
2023-04-07T00:10:45.840Z,99870.25
2023-04-07T00:13:13.089Z,99855.69
2023-04-07T00:15:40.453Z,99867.84
2023-04-07T00:18:07.822Z,99857.53
2023-04-07T00:20:35.140Z,99862.97
2023-04-07T00:23:02.437Z,99865.38
2023-04-07T00:25:29.684Z,99860.34
2023-04-07T00:27:56.907Z,99868.47
2023-04-07T00:30:24.337Z,99862.59
2023-04-07T00:32:51.845Z,99852.88
2023-04-07T00:35:19.199Z,99866.69
2023-04-07T00:37:46.452Z,99858.69
2023-04-07T00:40:13.764Z,99855.25
2023-04-07T00:42:41.338Z,99859.94
2023-04-07T00:45:10.592Z,99857.00
2023-04-07T00:47:38.948Z,99851.19
2023-04-07T00:50:06.694Z,99852.09
2023-04-07T00:52:33.923Z,99846.19
2023-04-07T00:55:01.991Z,99843.81
2023-04-07T00:57:29.241Z,99861.03
2023-04-07T00:59:56.535Z,99824.25
2023-04-07T01:02:44.039Z,99843.25
2023-04-07T01:05:17.104Z,99851.38
2023-04-07T01:08:02.379Z,99857.50
2023-04-07T01:10:51.671Z,99863.31
2023-04-07T01:13:26.209Z,99863.91
2023-04-07T01:15:59.535Z,99850.16
2023-04-07T01:18:32.265Z,99840.66
2023-04-07T01:21:05.115Z,99855.13
2023-04-07T01:24:06.800Z,99826.91
2023-04-07T01:26:34.102Z,99859.66
2023-04-07T01:29:37.335Z,99858.06
2023-04-07T01:32:06.244Z,99851.75
2023-04-07T01:34:33.677Z,99856.72
2023-04-07T01:37:01.988Z,99852.75
2023-04-07T01:39:29.381Z,99850.16
2023-04-07T01:41:57.094Z,99847.50
2023-04-07T01:44:24.428Z,99841.44
2023-04-07T01:46:51.882Z,99853.31
2023-04-07T01:49:19.141Z,99860.44
2023-04-07T01:51:52.371Z,99853.31
2023-04-07T01:54:19.691Z,99855.94
2023-04-07T01:56:46.974Z,99856.38
2023-04-07T01:59:14.252Z,99861.97
2023-04-07T02:01:42.743Z,99859.09
2023-04-07T02:04:26.264Z,99856.94
2023-04-07T02:06:56.486Z,99860.31
2023-04-07T02:09:33.103Z,99856.56
2023-04-07T02:12:00.979Z,99855.00
2023-04-07T02:14:32.410Z,99850.00
2023-04-07T02:17:04.267Z,99848.69
2023-04-07T02:19:34.734Z,99860.56
2023-04-07T02:22:05.596Z,99843.50
2023-04-07T02:24:32.923Z,99858.22
2023-04-07T02:27:02.167Z,99852.78
2023-04-07T02:29:29.654Z,99866.22
2023-04-07T02:31:56.994Z,99850.38
2023-04-07T02:34:24.337Z,99870.47
2023-04-07T02:36:51.672Z,99853.28
2023-04-07T02:39:18.961Z,99861.41
2023-04-07T02:41:46.307Z,99831.72
2023-04-07T02:44:13.565Z,99839.88
2023-04-07T02:46:41.441Z,99860.56
2023-04-07T02:49:08.750Z,99859.59
2023-04-07T02:51:35.986Z,99857.59
2023-04-07T02:54:03.300Z,99865.22
2023-04-07T02:56:31.450Z,99857.31
2023-04-07T02:58:58.822Z,99861.47
2023-04-07T03:01:26.506Z,99858.19
2023-04-07T03:03:54.130Z,99867.25
2023-04-07T03:06:24.625Z,99870.97
2023-04-07T03:09:09.587Z,99867.31
2023-04-07T03:11:37.509Z,99866.75
2023-04-07T03:14:04.872Z,99872.13
2023-04-07T03:16:33.532Z,99863.69
2023-04-07T03:19:08.984Z,99871.06
2023-04-07T03:21:40.502Z,99872.19
2023-04-07T03:24:08.161Z,99880.63
2023-04-07T03:26:35.528Z,99882.19
2023-04-07T03:29:04.402Z,99878.00
2023-04-07T03:31:32.195Z,99879.81
2023-04-07T03:33:59.576Z,99876.94
2023-04-07T03:36:28.242Z,99884.41
2023-04-07T03:38:58.131Z,99886.44
2023-04-07T03:41:25.560Z,99885.66
2023-04-07T03:43:52.924Z,99889.59
2023-04-07T03:46:21.511Z,99881.69
2023-04-07T03:48:48.845Z,99890.16
2023-04-07T03:51:16.304Z,99883.28
2023-04-07T03:53:45.779Z,99894.94
2023-04-07T03:56:25.407Z,99884.66
2023-04-07T03:58:53.744Z,99886.44
2023-04-07T04:01:31.449Z,99897.00
2023-04-07T04:04:05.525Z,99890.63
2023-04-07T04:06:32.983Z,99899.34
2023-04-07T04:09:29.808Z,99897.69
2023-04-07T04:11:57.150Z,99899.06
2023-04-07T04:14:25.017Z,99910.94
2023-04-07T04:16:57.279Z,99893.44
2023-04-07T04:19:32.009Z,99900.09
2023-04-07T04:22:03.654Z,99902.34
2023-04-07T04:24:35.819Z,99912.97
2023-04-07T04:27:04.714Z,99906.72
2023-04-07T04:29:33.430Z,99920.53
2023-04-07T04:32:02.935Z,99921.22
2023-04-07T04:34:31.023Z,99923.66
2023-04-07T04:36:59.541Z,99902.00
2023-04-07T04:39:27.101Z,99929.44
2023-04-07T04:41:54.489Z,99918.13
2023-04-07T04:44:25.400Z,99919.69
2023-04-07T04:46:53.039Z,99940.59
2023-04-07T04:49:20.489Z,99936.06
2023-04-07T04:51:50.010Z,99939.72
2023-04-07T04:54:19.248Z,99949.53
2023-04-07T04:56:46.519Z,99912.25
2023-04-07T04:59:13.938Z,99935.38
2023-04-07T05:01:58.969Z,99941.50
2023-04-07T05:04:28.436Z,99933.00
2023-04-07T05:07:03.590Z,99952.50
2023-04-07T05:09:32.579Z,99949.06
2023-04-07T05:11:59.945Z,99952.72
2023-04-07T05:14:29.521Z,99952.16
2023-04-07T05:17:04.328Z,99951.06
2023-04-07T05:19:32.540Z,99960.00
2023-04-07T05:22:05.600Z,99949.34
2023-04-07T05:24:41.181Z,99955.19
2023-04-07T05:27:08.485Z,99956.81
2023-04-07T05:29:36.633Z,99933.38
2023-04-07T05:32:05.950Z,99954.25
2023-04-07T05:34:33.638Z,99965.03
2023-04-07T05:37:01.042Z,99964.75
2023-04-07T05:39:28.878Z,99949.91
2023-04-07T05:41:58.191Z,99963.81
2023-04-07T05:44:27.708Z,99966.13
2023-04-07T05:46:56.070Z,99957.13
2023-04-07T05:49:25.262Z,99978.06
2023-04-07T05:52:01.204Z,99982.03
2023-04-07T05:54:28.638Z,99980.97
2023-04-07T05:56:57.846Z,99985.50
2023-04-07T05:59:25.192Z,99984.69
2023-04-07T06:01:53.189Z,99977.00
2023-04-07T06:04:21.200Z,99985.63
2023-04-07T06:06:50.751Z,99987.72
2023-04-07T06:09:19.231Z,99985.28
2023-04-07T06:11:47.215Z,99976.91
2023-04-07T06:14:17.647Z,99969.66
2023-04-07T06:16:44.960Z,99989.09
2023-04-07T06:19:12.390Z,99987.72
2023-04-07T06:21:40.091Z,99978.50
2023-04-07T06:24:07.644Z,99989.50
2023-04-07T06:26:36.329Z,99971.53
2023-04-07T06:29:03.689Z,99971.53
2023-04-07T06:31:31.483Z,99973.19
2023-04-07T06:33:58.824Z,99990.59
2023-04-07T06:36:27.744Z,99981.19
2023-04-07T06:38:55.656Z,99990.47
2023-04-07T06:41:22.904Z,99988.59
2023-04-07T06:43:51.501Z,99986.19
2023-04-07T06:46:19.111Z,99986.19
2023-04-07T06:48:46.441Z,99985.22
2023-04-07T06:51:13.698Z,99979.44
2023-04-07T06:53:42.043Z,99994.97
2023-04-07T06:56:10.749Z,99994.16
2023-04-07T06:58:38.185Z,100000.13
2023-04-07T07:01:06.187Z,99996.88
2023-04-07T07:03:33.585Z,100002.72
2023-04-07T07:06:01.255Z,100005.50
2023-04-07T07:08:29.143Z,100003.53
2023-04-07T07:10:56.494Z,100006.72
2023-04-07T07:13:24.933Z,100009.69
2023-04-07T07:15:52.587Z,100015.88
2023-04-07T07:18:20.123Z,100011.25
2023-04-07T07:20:47.350Z,100004.03
2023-04-07T07:23:14.681Z,100018.69
2023-04-07T07:25:42.091Z,100014.25
2023-04-07T07:28:09.824Z,100020.41
2023-04-07T07:30:39.384Z,100024.72
2023-04-07T07:33:06.801Z,100032.94
2023-04-07T07:35:34.442Z,100029.06
2023-04-07T07:38:01.752Z,100036.97
2023-04-07T07:40:29.025Z,100032.13
2023-04-07T07:42:56.726Z,100028.53
2023-04-07T07:45:24.100Z,100036.94
2023-04-07T07:47:51.358Z,100040.13
2023-04-07T07:50:18.733Z,100045.38
2023-04-07T07:52:46.302Z,100041.75
2023-04-07T07:55:13.542Z,100045.34
2023-04-07T07:57:40.805Z,100029.78
2023-04-07T08:00:08.581Z,100050.06
2023-04-07T08:02:41.994Z,100048.28
2023-04-07T08:05:09.631Z,100044.06
2023-04-07T08:07:37.766Z,100042.75
2023-04-07T08:10:05.729Z,100052.63
2023-04-07T08:12:32.946Z,100049.78
2023-04-07T08:15:00.413Z,100050.09
2023-04-07T08:17:27.698Z,100057.19
2023-04-07T08:19:54.961Z,100050.28
2023-04-07T08:22:25.267Z,100046.91
2023-04-07T08:24:52.522Z,100063.13
2023-04-07T08:27:20.902Z,100045.91
2023-04-07T08:30:01.074Z,100059.38
2023-04-07T08:32:35.696Z,100051.66
2023-04-07T08:35:03.131Z,100062.25
2023-04-07T08:37:31.468Z,100059.38
2023-04-07T08:39:58.737Z,100050.94
2023-04-07T08:42:28.478Z,100047.50
2023-04-07T08:45:05.854Z,100044.16
2023-04-07T08:47:34.178Z,100050.75
2023-04-07T08:50:08.939Z,100065.41
2023-04-07T08:52:46.634Z,100070.16
2023-04-07T08:55:13.926Z,100066.47
2023-04-07T08:57:44.103Z,100067.63
2023-04-07T09:00:11.983Z,100062.50
2023-04-07T09:02:41.139Z,100075.56
2023-04-07T09:05:09.095Z,100076.16
2023-04-07T09:07:37.537Z,100055.09
2023-04-07T09:10:05.516Z,100071.88
2023-04-07T09:12:32.988Z,100069.41
2023-04-07T09:15:00.492Z,100073.66
2023-04-07T09:17:28.454Z,100080.69
2023-04-07T09:19:59.292Z,100080.44
2023-04-07T09:22:43.179Z,100069.75
2023-04-07T09:25:22.923Z,100076.81
2023-04-07T09:28:00.731Z,100070.13
2023-04-07T09:30:29.143Z,100062.97
2023-04-07T09:32:56.793Z,100073.66
2023-04-07T09:35:24.853Z,100077.19
2023-04-07T09:38:10.662Z,100081.09
2023-04-07T09:40:38.635Z,100088.25
2023-04-07T09:43:06.081Z,100070.84
2023-04-07T09:45:36.552Z,100088.00
2023-04-07T09:48:08.794Z,100090.81
2023-04-07T09:50:39.157Z,100088.66
2023-04-07T09:53:07.141Z,100091.91
2023-04-07T09:55:35.048Z,100081.50
2023-04-07T09:58:02.531Z,100086.19
2023-04-07T10:00:29.831Z,100058.94
2023-04-07T10:02:57.951Z,100090.28
2023-04-07T10:05:25.560Z,100090.75
2023-04-07T10:07:52.899Z,100089.13
2023-04-07T10:10:20.404Z,100093.72
2023-04-07T10:12:47.690Z,100091.56
2023-04-07T10:15:16.046Z,100093.41
2023-04-07T10:17:48.423Z,100096.34
2023-04-07T10:20:20.957Z,100100.59
2023-04-07T10:22:49.396Z,100092.44
2023-04-07T10:25:18.539Z,100098.38
2023-04-07T10:27:51.314Z,100104.56
2023-04-07T10:30:22.456Z,100107.41
2023-04-07T10:32:50.621Z,100108.81
2023-04-07T10:35:18.034Z,100107.84
2023-04-07T10:38:07.125Z,100110.16
2023-04-07T10:40:35.577Z,100106.13
2023-04-07T10:43:03.061Z,100117.41
2023-04-07T10:45:48.944Z,100114.06
2023-04-07T10:48:17.255Z,100117.66
2023-04-07T10:51:08.393Z,100113.91
2023-04-07T10:53:36.273Z,100102.06
2023-04-07T10:56:03.599Z,100120.03
2023-04-07T10:58:33.915Z,100120.50
2023-04-07T11:01:01.354Z,100115.41
2023-04-07T11:03:29.600Z,100119.28
2023-04-07T11:06:10.673Z,100119.84
2023-04-07T11:08:39.576Z,100119.91
2023-04-07T11:11:09.419Z,100123.69
2023-04-07T11:13:46.861Z,100114.78
2023-04-07T11:16:17.977Z,100126.72
2023-04-07T11:18:46.432Z,100127.25
2023-04-07T11:21:19.377Z,100097.59
2023-04-07T11:23:47.965Z,100124.53
2023-04-07T11:26:16.121Z,100129.94
2023-04-07T11:28:46.918Z,100125.53
2023-04-07T11:31:23.043Z,100133.63
2023-04-07T11:34:00.339Z,100130.84
2023-04-07T11:36:38.874Z,100118.63
2023-04-07T11:39:06.145Z,100108.47
2023-04-07T11:41:33.688Z,100129.38
2023-04-07T11:44:08.294Z,100133.75
2023-04-07T11:46:36.333Z,100122.53
2023-04-07T11:49:11.115Z,100137.16
2023-04-07T11:51:38.528Z,100138.56
2023-04-07T11:54:05.924Z,100135.47
2023-04-07T11:56:48.094Z,100145.78
2023-04-07T11:59:23.258Z,100136.63
2023-04-07T12:01:51.319Z,100136.22
2023-04-07T12:04:19.290Z,100130.59
2023-04-07T12:06:47.660Z,100144.00
2023-04-07T12:09:29.328Z,100145.56
2023-04-07T12:11:57.916Z,100143.13
2023-04-07T12:14:26.358Z,100133.59
2023-04-07T12:16:56.532Z,100118.41
2023-04-07T12:19:25.617Z,100138.78
2023-04-07T12:21:52.891Z,100140.59
2023-04-07T12:24:20.214Z,100136.31
2023-04-07T12:26:48.086Z,100132.38
2023-04-07T12:29:16.374Z,100133.28
2023-04-07T12:31:43.938Z,100139.31
2023-04-07T12:34:11.487Z,100141.69
2023-04-07T12:36:38.973Z,100140.09
2023-04-07T12:39:06.463Z,100144.44
2023-04-07T12:41:33.758Z,100144.56
2023-04-07T12:44:01.037Z,100152.97
2023-04-07T12:46:28.417Z,100159.59
2023-04-07T12:48:56.224Z,100146.88
2023-04-07T12:51:23.688Z,100147.84
2023-04-07T12:53:51.192Z,100153.09
2023-04-07T12:56:18.540Z,100146.59
2023-04-07T12:58:46.049Z,100157.91
2023-04-07T13:01:13.501Z,100154.13
2023-04-07T13:03:41.278Z,100137.91
2023-04-07T13:06:08.592Z,100161.06
2023-04-07T13:08:36.006Z,100166.00
2023-04-07T13:11:03.434Z,100164.00
2023-04-07T13:13:31.406Z,100157.09
2023-04-07T13:15:58.770Z,100167.84
2023-04-07T13:18:26.169Z,100163.06
2023-04-07T13:21:13.158Z,100162.25
2023-04-07T13:23:43.699Z,100166.44
2023-04-07T13:26:11.711Z,100167.53
2023-04-07T13:28:39.168Z,100171.06
2023-04-07T13:31:06.576Z,100164.63
2023-04-07T13:33:34.827Z,100154.31
2023-04-07T13:36:02.166Z,100173.00
2023-04-07T13:38:29.522Z,100178.50
2023-04-07T13:40:56.880Z,100165.03
2023-04-07T13:43:24.193Z,100176.91
2023-04-07T13:45:51.755Z,100179.31
2023-04-07T13:48:19.125Z,100155.94
2023-04-07T13:50:46.408Z,100175.94
2023-04-07T13:53:13.669Z,100171.16
2023-04-07T13:55:41.192Z,100178.19
2023-04-07T13:58:08.539Z,100180.38
2023-04-07T14:00:38.356Z,100168.31
2023-04-07T14:03:05.829Z,100170.41
2023-04-07T14:05:33.286Z,100174.06
2023-04-07T14:08:00.576Z,100165.72
2023-04-07T14:10:27.895Z,100185.88
2023-04-07T14:12:55.120Z,100181.34
2023-04-07T14:15:22.420Z,100179.25
2023-04-07T14:17:49.778Z,100177.88
2023-04-07T14:20:17.171Z,100187.91
2023-04-07T14:22:44.630Z,100188.41
2023-04-07T14:25:12.272Z,100176.16
2023-04-07T14:27:39.645Z,100178.09
2023-04-07T14:30:07.536Z,100181.56
2023-04-07T14:32:36.010Z,100186.31
2023-04-07T14:35:03.335Z,100173.16
2023-04-07T14:37:30.688Z,100183.56
2023-04-07T14:42:29.798Z,100185.06
2023-04-07T14:44:57.154Z,100172.38
2023-04-07T14:47:24.506Z,100153.78
2023-04-07T14:49:53.541Z,100186.63
2023-04-07T14:52:22.080Z,100183.66
2023-04-07T14:54:49.491Z,100190.34
2023-04-07T14:57:17.169Z,100185.06
2023-04-07T14:59:44.623Z,100188.44
2023-04-07T15:02:12.025Z,100191.22
2023-04-07T15:04:39.634Z,100192.41
2023-04-07T15:07:07.014Z,100201.94
2023-04-07T15:09:34.388Z,100191.59
2023-04-07T15:12:02.255Z,100190.41
2023-04-07T15:14:29.615Z,100202.09
2023-04-07T15:16:56.893Z,100178.16
2023-04-07T15:19:24.114Z,100166.97
2023-04-07T15:21:51.381Z,100206.47
2023-04-07T15:24:19.700Z,100191.22
2023-04-07T15:26:47.017Z,100209.16
2023-04-07T15:29:14.305Z,100203.31
2023-04-07T15:31:41.583Z,100203.50
2023-04-07T15:34:08.840Z,100182.09
2023-04-07T15:36:36.085Z,100210.44
2023-04-07T15:39:04.521Z,100204.28
2023-04-07T15:41:31.885Z,100203.41
2023-04-07T15:44:01.491Z,100211.63
2023-04-07T15:46:28.979Z,100214.81
2023-04-07T15:48:56.304Z,100198.47
2023-04-07T15:51:23.664Z,100212.72
2023-04-07T15:53:51.105Z,100222.31
2023-04-07T15:56:18.653Z,100222.84
2023-04-07T15:58:46.057Z,100223.69
2023-04-07T16:01:13.412Z,100231.19
2023-04-07T16:03:40.957Z,100224.66
2023-04-07T16:06:08.346Z,100229.03
2023-04-07T16:08:35.685Z,100222.50
2023-04-07T16:11:02.968Z,100231.31
2023-04-07T16:13:30.307Z,100223.91
2023-04-07T16:15:57.757Z,100221.41
2023-04-07T16:18:25.042Z,100226.47
2023-04-07T16:20:52.254Z,100218.56
2023-04-07T16:23:19.567Z,100217.53
2023-04-07T16:25:46.839Z,100225.13
2023-04-07T16:28:14.095Z,100243.06
2023-04-07T16:30:41.446Z,100247.41
2023-04-07T16:33:08.789Z,100243.63
2023-04-07T16:35:36.393Z,100238.25
2023-04-07T16:38:06.019Z,100243.59
2023-04-07T16:40:33.503Z,100258.91
2023-04-07T16:43:00.846Z,100262.16
2023-04-07T16:45:28.128Z,100254.59
2023-04-07T16:47:55.522Z,100259.38
2023-04-07T16:50:22.949Z,100268.38
2023-04-07T16:52:50.294Z,100262.09
2023-04-07T16:55:17.658Z,100279.13
2023-04-07T16:57:45.004Z,100278.34
2023-04-07T17:00:13.061Z,100288.22
2023-04-07T17:02:40.483Z,100286.34
2023-04-07T17:05:08.311Z,100286.94
2023-04-07T17:07:36.013Z,100279.00
2023-04-07T17:10:03.788Z,100297.75
2023-04-07T17:12:31.047Z,100295.59
2023-04-07T17:14:58.329Z,100303.53
2023-04-07T17:17:25.770Z,100304.03
2023-04-07T17:19:53.889Z,100302.31
2023-04-07T17:22:21.976Z,100295.16
2023-04-07T17:24:49.286Z,100298.78
2023-04-07T17:27:16.543Z,100308.31
2023-04-07T17:29:43.821Z,100309.66
2023-04-07T17:32:11.070Z,100310.69
2023-04-07T17:34:38.306Z,100305.69
2023-04-07T17:37:05.788Z,100304.88
2023-04-07T17:39:33.051Z,100315.78
2023-04-07T17:42:00.394Z,100313.41
2023-04-07T17:44:27.801Z,100314.03
2023-04-07T17:46:55.310Z,100327.56
2023-04-07T17:49:22.721Z,100328.78
2023-04-07T17:51:50.008Z,100327.44
2023-04-07T17:54:17.346Z,100332.81
2023-04-07T17:56:44.618Z,100335.28
2023-04-07T17:59:12.045Z,100337.72
2023-04-07T18:01:39.777Z,100344.06
2023-04-07T18:04:07.387Z,100343.59
2023-04-07T18:06:35.218Z,100314.47
2023-04-07T18:09:04.637Z,100350.78
2023-04-07T18:11:32.816Z,100346.81
2023-04-07T18:14:00.568Z,100324.81
2023-04-07T18:16:28.025Z,100353.59
2023-04-07T18:18:55.424Z,100357.13
2023-04-07T18:21:22.753Z,100356.34
2023-04-07T18:23:50.185Z,100366.38
2023-04-07T18:26:17.641Z,100357.13
2023-04-07T18:28:44.910Z,100354.59
2023-04-07T18:31:12.522Z,100371.22
2023-04-07T18:33:39.853Z,100373.59
2023-04-07T18:36:07.668Z,100372.81
2023-04-07T18:38:35.958Z,100378.50
2023-04-07T18:41:05.769Z,100374.00
2023-04-07T18:43:33.031Z,100379.59
2023-04-07T18:46:00.313Z,100379.50
2023-04-07T18:48:27.761Z,100380.97
2023-04-07T18:50:55.532Z,100381.53
2023-04-07T18:53:23.473Z,100388.97
2023-04-07T18:55:51.338Z,100387.34
2023-04-07T18:58:19.394Z,100385.13
2023-04-07T19:00:47.582Z,100393.44
2023-04-07T19:03:14.987Z,100392.69
2023-04-07T19:05:42.463Z,100389.28
2023-04-07T19:08:09.840Z,100381.06
2023-04-07T19:10:37.228Z,100390.09
2023-04-07T19:13:04.793Z,100387.72
2023-04-07T19:15:36.516Z,100392.50
2023-04-07T19:18:04.113Z,100393.25
2023-04-07T19:20:33.535Z,100382.94
2023-04-07T19:23:01.959Z,100384.53
2023-04-07T19:25:30.740Z,100384.31
2023-04-07T19:27:58.248Z,100374.25
2023-04-07T19:30:25.601Z,100399.16
2023-04-07T19:32:53.296Z,100391.44
2023-04-07T19:35:21.113Z,100387.47
2023-04-07T19:37:48.526Z,100402.06
2023-04-07T19:40:15.896Z,100398.88
2023-04-07T19:42:43.143Z,100395.50
2023-04-07T19:45:10.572Z,100398.59
2023-04-07T19:47:38.487Z,100394.31
2023-04-07T19:50:06.787Z,100396.91
2023-04-07T19:52:34.126Z,100406.78
2023-04-07T19:55:02.744Z,100410.88
2023-04-07T19:57:31.263Z,100411.47
2023-04-07T19:59:58.508Z,100407.75
2023-04-07T20:02:26.054Z,100407.88
2023-04-07T20:04:53.758Z,100411.09
2023-04-07T20:07:21.912Z,100419.06
2023-04-07T20:09:51.435Z,100411.88
2023-04-07T20:12:18.786Z,100399.28
2023-04-07T20:14:46.380Z,100415.88
2023-04-07T20:17:13.592Z,100413.78
2023-04-07T20:19:41.533Z,100415.66
2023-04-07T20:22:08.917Z,100422.53
2023-04-07T20:24:36.275Z,100411.34
2023-04-07T20:27:03.610Z,100416.63
2023-04-07T20:29:31.216Z,100416.84
2023-04-07T20:31:58.501Z,100416.34
2023-04-07T20:34:25.911Z,100417.94
2023-04-07T20:36:53.197Z,100420.81
2023-04-07T20:39:20.529Z,100425.28
2023-04-07T20:41:48.019Z,100429.06
2023-04-07T20:44:15.328Z,100413.16
2023-04-07T20:46:44.003Z,100426.75
2023-04-07T20:49:11.248Z,100421.91
2023-04-07T20:51:38.519Z,100430.19
2023-04-07T20:54:06.036Z,100430.19
2023-04-07T20:56:33.386Z,100415.88
2023-04-07T20:59:00.897Z,100430.19
2023-04-07T21:01:28.407Z,100427.03
2023-04-07T21:03:55.788Z,100448.81
2023-04-07T21:06:23.078Z,100439.41
2023-04-07T21:08:50.554Z,100438.44
2023-04-07T21:11:17.920Z,100441.13
2023-04-07T21:13:45.416Z,100443.75
2023-04-07T21:16:12.738Z,100436.75
2023-04-07T21:18:40.108Z,100438.13
2023-04-07T21:21:08.267Z,100431.50
2023-04-07T21:23:35.559Z,100435.28
2023-04-07T21:26:05.998Z,100434.72
2023-04-07T21:28:33.301Z,100445.13
2023-04-07T21:31:01.381Z,100436.91
2023-04-07T21:33:28.955Z,100426.31
2023-04-07T21:35:56.532Z,100415.47
2023-04-07T21:38:23.865Z,100443.22
2023-04-07T21:40:51.331Z,100432.00
2023-04-07T21:43:18.605Z,100437.50
2023-04-07T21:45:47.070Z,100421.78
2023-04-07T21:48:20.840Z,100420.19
2023-04-07T21:50:48.180Z,100432.97
2023-04-07T21:53:15.431Z,100439.41
2023-04-07T21:55:42.700Z,100443.13
2023-04-07T21:58:10.386Z,100429.28
2023-04-07T22:00:38.540Z,100443.09
2023-04-07T22:03:07.163Z,100449.78
2023-04-07T22:05:34.637Z,100437.63
2023-04-07T22:08:03.137Z,100445.13
2023-04-07T22:10:31.043Z,100446.41
2023-04-07T22:12:58.307Z,100436.34
2023-04-07T22:15:25.746Z,100445.78
2023-04-07T22:17:53.099Z,100445.63
2023-04-07T22:20:20.463Z,100443.22
2023-04-07T22:22:47.724Z,100449.53
2023-04-07T22:25:15.055Z,100449.13
2023-04-07T22:27:42.362Z,100447.91
2023-04-07T22:30:10.942Z,100447.91
2023-04-07T22:32:38.377Z,100438.81
2023-04-07T22:35:05.966Z,100444.59
2023-04-07T22:37:33.232Z,100442.25
2023-04-07T22:40:00.555Z,100442.56
2023-04-07T22:42:27.814Z,100454.00
2023-04-07T22:44:55.080Z,100442.78
2023-04-07T22:47:22.640Z,100448.09
2023-04-07T22:49:49.981Z,100447.31
2023-04-07T22:52:17.248Z,100458.69
2023-04-07T22:54:44.600Z,100447.91
2023-04-07T22:57:11.883Z,100427.19
2023-04-07T22:59:39.106Z,100455.13
2023-04-07T23:02:06.393Z,100463.19
2023-04-07T23:04:33.717Z,100459.69
2023-04-07T23:07:01.450Z,100443.69
2023-04-07T23:09:28.692Z,100460.59
2023-04-07T23:11:57.101Z,100447.03
2023-04-07T23:14:24.373Z,100461.88
2023-04-07T23:16:51.748Z,100453.34
2023-04-07T23:19:19.123Z,100464.69
2023-04-07T23:21:46.389Z,100455.66
2023-04-07T23:24:13.742Z,100454.00
2023-04-07T23:26:41.088Z,100456.94
2023-04-07T23:29:08.413Z,100453.22
2023-04-07T23:31:35.930Z,100462.06
2023-04-07T23:34:04.210Z,100450.91
2023-04-07T23:36:31.605Z,100448.75
2023-04-07T23:38:58.923Z,100454.34
2023-04-07T23:41:26.181Z,100454.66
2023-04-07T23:43:53.463Z,100451.25
2023-04-07T23:46:22.096Z,100455.31
2023-04-07T23:48:49.911Z,100435.44
2023-04-07T23:51:17.342Z,100450.31
2023-04-07T23:53:44.650Z,100450.53
2023-04-07T23:56:12.011Z,100457.44
2023-04-07T23:58:39.302Z,100459.06
